createdAt,value
2023-01-29T00:00:00.893Z,102381.03
2023-01-29T00:02:29.101Z,102368.94
2023-01-29T00:04:59.144Z,102366.41
2023-01-29T00:07:28.849Z,102369.84
2023-01-29T00:09:57.028Z,102366.44
2023-01-29T00:12:25.236Z,102364.75
2023-01-29T00:14:55.022Z,102352.75
2023-01-29T00:17:23.500Z,102354.53
2023-01-29T00:19:51.756Z,102357.97
2023-01-29T00:22:20.129Z,102356.25
2023-01-29T00:24:49.785Z,102340.81
2023-01-29T00:27:17.967Z,102348.56
2023-01-29T00:30:06.162Z,102351.19
2023-01-29T00:32:34.401Z,102349.47
2023-01-29T00:35:02.599Z,102350.31
2023-01-29T00:37:30.943Z,102345.16
2023-01-29T00:40:00.536Z,102352.91
2023-01-29T00:42:46.365Z,102349.47
2023-01-29T00:45:14.904Z,102353.75
2023-01-29T00:47:43.053Z,102350.34
2023-01-29T00:50:13.601Z,102331.44
2023-01-29T00:52:42.263Z,102326.25
2023-01-29T00:55:13.105Z,102327.06
2023-01-29T00:57:41.395Z,102327.00
2023-01-29T01:00:13.093Z,102315.75
2023-01-29T01:02:59.076Z,102319.13
2023-01-29T01:05:28.426Z,102324.28
2023-01-29T01:07:59.855Z,102327.78
2023-01-29T01:10:31.735Z,102329.53
2023-01-29T01:13:02.033Z,102332.16
2023-01-29T01:15:31.900Z,102330.47
2023-01-29T01:18:02.032Z,102330.47
2023-01-29T01:20:32.195Z,102321.03
2023-01-29T01:23:00.431Z,102330.50
2023-01-29T01:25:30.232Z,102332.22
2023-01-29T01:28:03.316Z,102323.63
2023-01-29T01:30:33.216Z,102327.94
2023-01-29T01:33:02.044Z,102334.81
2023-01-29T01:35:30.608Z,102321.94
2023-01-29T01:37:58.839Z,102319.38
2023-01-29T01:40:29.214Z,102327.06
2023-01-29T01:42:59.617Z,102321.88
2023-01-29T01:45:30.340Z,102315.06
2023-01-29T01:48:03.196Z,102316.75
2023-01-29T01:50:35.533Z,102308.22
2023-01-29T01:53:08.592Z,102314.22
2023-01-29T01:55:43.217Z,102319.34
2023-01-29T01:58:14.213Z,102309.03
2023-01-29T02:00:44.139Z,102296.16
2023-01-29T02:03:31.622Z,102293.59
2023-01-29T02:06:18.887Z,102303.00
2023-01-29T02:09:11.584Z,102303.78
2023-01-29T02:11:41.565Z,102308.03
2023-01-29T02:14:09.982Z,102311.47
2023-01-29T02:16:38.606Z,102304.63
2023-01-29T02:19:16.445Z,102314.97
2023-01-29T02:22:07.155Z,102309.81
2023-01-29T02:24:59.677Z,102324.41
2023-01-29T02:27:42.722Z,102326.09
2023-01-29T02:30:18.620Z,102318.34
2023-01-29T02:32:58.733Z,102312.34
2023-01-29T02:35:33.358Z,102314.88
2023-01-29T02:38:14.211Z,102309.75
2023-01-29T02:40:46.746Z,102308.88
2023-01-29T02:43:21.158Z,102301.97
2023-01-29T02:45:56.719Z,102289.97
2023-01-29T02:48:28.964Z,102283.06
2023-01-29T02:51:01.807Z,102290.69
2023-01-29T02:53:37.403Z,102289.78
2023-01-29T02:56:13.821Z,102286.38
2023-01-29T02:58:45.400Z,102277.81
2023-01-29T03:01:19.630Z,102274.41
2023-01-29T03:03:54.278Z,102282.97
2023-01-29T03:06:26.400Z,102277.84
2023-01-29T03:08:59.035Z,102277.88
2023-01-29T03:11:31.326Z,102264.16
2023-01-29T03:14:06.133Z,102273.63
2023-01-29T03:16:41.298Z,102276.19
2023-01-29T03:19:13.371Z,102259.88
2023-01-29T03:21:59.449Z,102272.72
2023-01-29T03:24:55.004Z,102271.81
2023-01-29T03:27:45.273Z,102270.13
2023-01-29T03:30:35.053Z,102275.31
2023-01-29T03:33:22.146Z,102266.69
2023-01-29T03:35:58.651Z,102267.56
2023-01-29T03:38:29.749Z,102274.41
2023-01-29T03:41:01.115Z,102276.91
2023-01-29T03:43:35.328Z,102282.94
2023-01-29T03:46:09.269Z,102267.47
2023-01-29T03:48:46.027Z,102273.53
2023-01-29T03:51:24.913Z,102282.16
2023-01-29T03:54:00.992Z,102279.53
2023-01-29T03:56:40.761Z,102284.69
2023-01-29T03:59:20.952Z,102270.94
2023-01-29T04:02:22.061Z,102271.78
2023-01-29T04:04:56.327Z,102276.94
2023-01-29T04:07:25.658Z,102278.69
2023-01-29T04:10:07.940Z,102282.97
2023-01-29T04:12:42.666Z,102276.09
2023-01-29T04:15:15.883Z,102276.09
2023-01-29T04:17:50.215Z,102275.25
2023-01-29T04:20:40.122Z,102274.34
2023-01-29T04:23:08.893Z,102272.59
2023-01-29T04:25:46.074Z,102271.78
2023-01-29T04:28:23.739Z,102273.53
2023-01-29T04:30:58.415Z,102268.44
2023-01-29T04:33:36.280Z,102263.28
2023-01-29T04:36:17.541Z,102274.44
2023-01-29T04:38:56.207Z,102274.44
2023-01-29T04:41:31.040Z,102265.88
2023-01-29T04:44:05.027Z,102268.44
2023-01-29T04:46:42.855Z,102271.84
2023-01-29T04:49:20.013Z,102264.91
2023-01-29T04:52:00.857Z,102273.44
2023-01-29T04:54:43.320Z,102267.34
2023-01-29T04:57:17.391Z,102268.16
2023-01-29T04:59:52.482Z,102273.31
2023-01-29T05:02:23.241Z,102286.16
2023-01-29T05:04:52.009Z,102287.06
2023-01-29T05:07:24.684Z,102284.56
2023-01-29T05:09:53.149Z,102282.88
2023-01-29T05:12:21.449Z,102284.59
2023-01-29T05:14:51.982Z,102287.22
2023-01-29T05:17:21.834Z,102285.50
2023-01-29T05:19:50.437Z,102269.25
2023-01-29T05:22:22.870Z,102264.09
2023-01-29T05:24:51.432Z,102272.59
2023-01-29T05:27:39.875Z,102265.72
2023-01-29T05:30:10.439Z,102257.97
2023-01-29T05:32:39.834Z,102256.25
2023-01-29T05:35:08.703Z,102255.44
2023-01-29T05:37:38.542Z,102252.91
2023-01-29T05:40:08.930Z,102256.34
2023-01-29T05:42:37.386Z,102258.06
2023-01-29T05:45:06.275Z,102253.78
2023-01-29T05:47:34.481Z,102257.19
2023-01-29T05:50:02.629Z,102256.34
2023-01-29T05:52:30.895Z,102264.97
2023-01-29T05:55:00.465Z,102265.00
2023-01-29T05:57:28.704Z,102269.31
2023-01-29T05:59:56.918Z,102258.16
2023-01-29T06:02:25.112Z,102265.84
2023-01-29T06:04:53.591Z,102271.81
2023-01-29T06:07:21.796Z,102268.34
2023-01-29T06:09:50.037Z,102268.28
2023-01-29T06:12:19.644Z,102271.69
2023-01-29T06:14:47.879Z,102271.69
2023-01-29T06:17:16.072Z,102273.47
2023-01-29T06:19:44.299Z,102276.03
2023-01-29T06:22:12.551Z,102273.50
2023-01-29T06:24:40.759Z,102269.25
2023-01-29T06:27:08.953Z,102273.53
2023-01-29T06:29:38.572Z,102274.38
2023-01-29T06:32:07.101Z,102281.19
2023-01-29T06:34:35.465Z,102268.31
2023-01-29T06:37:04.032Z,102267.44
2023-01-29T06:39:32.273Z,102264.03
2023-01-29T06:42:00.606Z,102262.28
2023-01-29T06:44:28.792Z,102264.88
2023-01-29T06:46:59.142Z,102264.81
2023-01-29T06:49:27.458Z,102263.09
2023-01-29T06:51:55.713Z,102253.69
2023-01-29T06:54:24.011Z,102254.53
2023-01-29T06:56:53.033Z,102255.44
2023-01-29T06:59:21.316Z,102253.75
2023-01-29T07:01:49.596Z,102246.88
2023-01-29T07:04:19.305Z,102249.50
2023-01-29T07:06:47.507Z,102247.75
2023-01-29T07:09:16.137Z,102248.63
2023-01-29T07:11:44.687Z,102255.47
2023-01-29T07:14:12.967Z,102260.63
2023-01-29T07:16:41.202Z,102263.19
2023-01-29T07:19:09.474Z,102258.88
2023-01-29T07:21:39.405Z,102265.75
2023-01-29T07:24:08.212Z,102265.72
2023-01-29T07:26:36.621Z,102264.00
2023-01-29T07:29:06.325Z,102272.59
2023-01-29T07:31:34.851Z,102266.59
2023-01-29T07:34:03.089Z,102272.56
2023-01-29T07:36:31.445Z,102277.72
2023-01-29T07:39:01.147Z,102270.88
2023-01-29T07:41:29.706Z,102265.72
2023-01-29T07:44:01.026Z,102257.97
2023-01-29T07:46:29.217Z,102273.41
2023-01-29T07:48:57.417Z,102270.00
2023-01-29T07:51:25.637Z,102260.56
2023-01-29T07:53:53.888Z,102267.38
2023-01-29T07:56:23.506Z,102264.81
2023-01-29T07:58:51.748Z,102259.66
2023-01-29T08:01:20.022Z,102263.94
2023-01-29T08:03:50.552Z,102259.69
2023-01-29T08:06:19.479Z,102271.69
2023-01-29T08:08:47.688Z,102272.53
2023-01-29T08:11:15.976Z,102257.09
2023-01-29T08:13:46.775Z,102271.69
2023-01-29T08:16:15.427Z,102275.16
2023-01-29T08:18:47.713Z,102266.59
2023-01-29T08:21:16.576Z,102268.31
2023-01-29T08:23:44.762Z,102271.75
2023-01-29T08:26:13.045Z,102275.16
2023-01-29T08:28:41.273Z,102277.72
2023-01-29T08:31:16.483Z,102277.78
2023-01-29T08:33:44.726Z,102276.91
2023-01-29T08:36:13.048Z,102280.34
2023-01-29T08:38:41.383Z,102279.50
2023-01-29T08:41:09.737Z,102283.78
2023-01-29T08:43:38.694Z,102281.22
2023-01-29T08:46:08.022Z,102277.78
2023-01-29T08:48:37.813Z,102278.63
2023-01-29T08:51:06.225Z,102277.72
2023-01-29T08:53:34.509Z,102273.47
2023-01-29T08:56:02.751Z,102273.47
2023-01-29T08:58:31.015Z,102273.50
2023-01-29T09:01:07.084Z,102274.38
2023-01-29T09:03:35.389Z,102276.97
2023-01-29T09:06:05.515Z,102276.97
2023-01-29T09:08:34.116Z,102277.84
2023-01-29T09:11:02.317Z,102282.16
2023-01-29T09:13:30.683Z,102276.16
2023-01-29T09:16:01.401Z,102277.91
2023-01-29T09:18:30.615Z,102275.34
2023-01-29T09:20:59.167Z,102276.19
2023-01-29T09:23:28.813Z,102271.91
2023-01-29T09:25:57.447Z,102284.78
2023-01-29T09:28:25.837Z,102287.41
2023-01-29T09:30:54.132Z,102285.59
2023-01-29T09:33:22.383Z,102278.78
2023-01-29T09:35:50.611Z,102289.13
2023-01-29T09:38:18.813Z,102289.97
2023-01-29T09:40:59.738Z,102284.84
2023-01-29T09:43:40.577Z,102278.03
2023-01-29T09:46:17.786Z,102279.72
2023-01-29T09:48:48.007Z,102278.91
2023-01-29T09:51:27.112Z,102273.78
2023-01-29T09:54:05.137Z,102270.34
2023-01-29T09:56:35.288Z,102271.19
2023-01-29T09:59:03.599Z,102263.47
2023-01-29T10:01:38.265Z,102272.06
2023-01-29T10:04:24.030Z,102277.28
2023-01-29T10:07:09.196Z,102272.19
2023-01-29T10:10:02.988Z,102279.94
2023-01-29T10:12:45.566Z,102280.84
2023-01-29T10:15:24.675Z,102286.84
2023-01-29T10:18:06.599Z,102290.31
2023-01-29T10:20:59.393Z,102292.03
2023-01-29T10:23:31.526Z,102288.63
2023-01-29T10:26:01.337Z,102296.38
2023-01-29T10:28:35.127Z,102290.41
2023-01-29T10:31:09.676Z,102291.31
2023-01-29T10:34:00.985Z,102289.63
2023-01-29T10:36:35.466Z,102291.38
2023-01-29T10:39:03.854Z,102291.38
2023-01-29T10:42:14.549Z,102290.53
2023-01-29T10:44:57.919Z,102291.44
2023-01-29T10:47:59.835Z,102296.59
2023-01-29T10:50:50.119Z,102295.75
2023-01-29T10:53:29.807Z,102285.44
2023-01-29T10:56:14.082Z,102290.59
2023-01-29T10:58:52.866Z,102294.06
2023-01-29T11:01:22.723Z,102282.06
2023-01-29T11:03:58.885Z,102277.81
2023-01-29T11:06:31.607Z,102273.53
2023-01-29T11:09:09.002Z,102271.81
2023-01-29T11:11:42.825Z,102280.44
2023-01-29T11:14:15.884Z,102271.03
2023-01-29T11:16:48.575Z,102267.59
2023-01-29T11:19:17.586Z,102271.03
2023-01-29T11:21:54.323Z,102262.47
2023-01-29T11:24:22.573Z,102255.56
2023-01-29T11:26:53.124Z,102260.78
2023-01-29T11:29:46.584Z,102253.03
2023-01-29T11:32:27.024Z,102253.03
2023-01-29T11:35:00.961Z,102256.53
2023-01-29T11:37:40.614Z,102258.28
2023-01-29T11:40:44.255Z,102253.16
2023-01-29T11:43:21.722Z,102248.03
2023-01-29T11:45:52.587Z,102249.78
2023-01-29T11:48:24.632Z,102245.53
2023-01-29T11:50:54.886Z,102252.44
2023-01-29T11:53:35.879Z,102254.16
2023-01-29T11:56:08.483Z,102249.03
2023-01-29T11:58:37.021Z,102240.38
2023-01-29T12:01:06.686Z,102238.69
2023-01-29T12:03:41.566Z,102242.16
2023-01-29T12:06:19.362Z,102244.75
2023-01-29T12:08:57.019Z,102236.16
2023-01-29T12:11:31.868Z,102224.16
2023-01-29T12:14:02.134Z,102227.63
2023-01-29T12:16:34.729Z,102220.75
2023-01-29T12:19:12.899Z,102213.88
2023-01-29T12:21:48.331Z,102217.31
2023-01-29T12:24:32.019Z,102207.84
2023-01-29T12:27:08.844Z,102205.28
2023-01-29T12:29:44.985Z,102200.13
2023-01-29T12:32:27.580Z,102198.41
2023-01-29T12:35:02.952Z,102197.56
2023-01-29T12:37:41.144Z,102185.50
2023-01-29T12:40:15.824Z,102188.94
2023-01-29T12:42:48.936Z,102181.19
2023-01-29T12:45:19.969Z,102174.28
2023-01-29T12:47:51.389Z,102182.06
2023-01-29T12:50:23.334Z,102178.59
2023-01-29T12:52:56.127Z,102176.03
2023-01-29T12:55:29.423Z,102171.72
2023-01-29T12:58:00.010Z,102161.38
2023-01-29T13:00:31.363Z,102156.22
2023-01-29T13:03:05.520Z,102158.81
2023-01-29T13:05:45.076Z,102159.66
2023-01-29T13:08:20.032Z,102153.63
2023-01-29T13:10:52.299Z,102139.84
2023-01-29T13:13:28.863Z,102138.13
2023-01-29T13:16:00.180Z,102137.25
2023-01-29T13:18:44.880Z,102129.50
2023-01-29T13:21:18.691Z,102125.22
2023-01-29T13:23:49.707Z,102121.78
2023-01-29T13:26:20.303Z,102125.22
2023-01-29T13:28:49.424Z,102109.69
2023-01-29T13:31:29.741Z,102112.28
2023-01-29T13:34:11.156Z,102109.69
2023-01-29T13:36:44.563Z,102103.69
2023-01-29T13:39:23.980Z,102095.94
2023-01-29T13:41:53.540Z,102086.47
2023-01-29T13:44:25.962Z,102085.59
2023-01-29T13:46:59.060Z,102082.16
2023-01-29T13:49:36.198Z,102082.16
2023-01-29T13:52:27.212Z,102078.69
2023-01-29T13:54:58.664Z,102073.53
2023-01-29T13:57:50.383Z,102068.38
2023-01-29T14:01:01.659Z,102064.06
2023-01-29T14:04:04.602Z,102070.09
2023-01-29T14:06:50.885Z,102064.06
2023-01-29T14:10:04.115Z,102064.06
2023-01-29T14:12:52.810Z,102064.94
2023-01-29T14:15:41.951Z,102061.47
2023-01-29T14:18:21.447Z,102053.72
2023-01-29T14:21:01.480Z,102062.34
2023-01-29T14:23:40.513Z,102047.69
2023-01-29T14:26:22.955Z,102045.13
2023-01-29T14:29:02.434Z,102046.00
2023-01-29T14:31:41.765Z,102053.72
2023-01-29T14:34:20.247Z,102054.59
2023-01-29T14:36:55.375Z,102049.41
2023-01-29T14:39:30.970Z,102055.47
2023-01-29T14:42:01.149Z,102052.00
2023-01-29T14:44:59.048Z,102043.41
2023-01-29T14:47:56.543Z,102037.38
2023-01-29T14:50:47.077Z,102047.72
2023-01-29T14:53:21.151Z,102042.53
2023-01-29T14:55:55.408Z,102038.25
2023-01-29T14:58:30.355Z,102041.69
2023-01-29T15:01:01.302Z,102042.56
2023-01-29T15:03:38.672Z,102047.69
2023-01-29T15:06:09.115Z,102045.13
2023-01-29T15:08:45.146Z,102038.22
2023-01-29T15:11:37.552Z,102035.63
2023-01-29T15:14:15.143Z,102033.06
2023-01-29T15:16:58.232Z,102027.88
2023-01-29T15:19:30.992Z,102026.19
2023-01-29T15:22:08.144Z,102023.56
2023-01-29T15:24:38.508Z,102029.63
2023-01-29T15:27:11.357Z,102026.16
2023-01-29T15:29:40.750Z,102020.13
2023-01-29T15:32:16.373Z,102021.84
2023-01-29T15:34:45.562Z,102004.66
2023-01-29T15:37:28.158Z,102006.34
2023-01-29T15:39:56.682Z,102014.13
2023-01-29T15:42:25.983Z,102010.66
2023-01-29T15:44:55.672Z,102000.31
2023-01-29T15:47:33.865Z,102011.53
2023-01-29T15:50:02.187Z,102015.00
2023-01-29T15:52:35.368Z,102006.34
2023-01-29T15:55:07.749Z,102008.94
2023-01-29T15:57:41.317Z,102002.06
2023-01-29T16:00:23.160Z,102006.34
2023-01-29T16:02:54.926Z,102003.78
2023-01-29T16:05:26.874Z,102002.91
2023-01-29T16:07:56.783Z,102003.78
2023-01-29T16:10:27.795Z,102002.91
2023-01-29T16:12:56.746Z,102003.78
2023-01-29T16:15:32.341Z,102001.19
2023-01-29T16:18:04.734Z,101995.16
2023-01-29T16:20:45.169Z,101995.19
2023-01-29T16:23:20.310Z,101993.44
2023-01-29T16:25:50.536Z,101985.69
2023-01-29T16:28:19.752Z,101994.31
2023-01-29T16:30:48.165Z,101994.31
2023-01-29T16:33:19.891Z,101994.31
2023-01-29T16:35:52.974Z,101991.72
2023-01-29T16:38:28.826Z,101984.84
2023-01-29T16:41:08.704Z,101982.22
2023-01-29T16:43:58.818Z,101990.88
2023-01-29T16:46:33.368Z,101984.81
2023-01-29T16:49:03.596Z,101985.69
2023-01-29T16:51:38.642Z,101985.66
2023-01-29T16:54:12.234Z,101986.53
2023-01-29T16:56:41.289Z,102001.19
2023-01-29T16:59:18.921Z,101996.88
2023-01-29T17:01:47.834Z,101995.13
2023-01-29T17:04:19.968Z,102001.19
2023-01-29T17:06:50.159Z,101986.53
2023-01-29T17:09:25.549Z,101992.53
2023-01-29T17:11:57.707Z,101989.97
2023-01-29T17:14:26.911Z,101989.13
2023-01-29T17:16:57.256Z,101999.44
2023-01-29T17:19:27.123Z,101994.28
2023-01-29T17:21:55.760Z,101983.94
2023-01-29T17:24:24.349Z,101976.19
2023-01-29T17:26:53.921Z,101988.28
2023-01-29T17:29:28.082Z,101987.41
2023-01-29T17:31:56.737Z,101991.69
2023-01-29T17:34:27.357Z,101982.22
2023-01-29T17:36:57.350Z,101990.00
2023-01-29T17:39:25.737Z,101979.66
2023-01-29T17:41:55.652Z,101980.50
2023-01-29T17:44:26.248Z,101983.97
2023-01-29T17:46:54.865Z,101979.69
2023-01-29T17:49:27.209Z,101973.66
2023-01-29T17:51:57.456Z,101975.34
2023-01-29T17:54:26.813Z,101978.81
2023-01-29T17:56:55.428Z,101978.81
2023-01-29T17:59:25.831Z,101983.13
2023-01-29T18:01:54.523Z,101985.69
2023-01-29T18:04:23.058Z,101987.41
2023-01-29T18:06:54.429Z,101989.13
2023-01-29T18:09:23.436Z,101985.72
2023-01-29T18:11:53.504Z,101985.72
2023-01-29T18:14:21.739Z,101996.03
2023-01-29T18:16:50.055Z,101998.63
2023-01-29T18:19:22.265Z,101985.72
2023-01-29T18:21:50.950Z,101990.03
2023-01-29T18:24:23.698Z,101990.03
2023-01-29T18:26:52.506Z,101994.31
2023-01-29T18:29:20.733Z,101990.88
2023-01-29T18:31:49.984Z,101991.72
2023-01-29T18:34:18.265Z,101988.31
2023-01-29T18:36:47.914Z,101987.44
2023-01-29T18:39:16.449Z,101995.19
2023-01-29T18:41:46.081Z,101991.75
2023-01-29T18:44:14.322Z,101987.44
2023-01-29T18:46:42.574Z,101977.97
2023-01-29T18:49:11.093Z,101983.13
2023-01-29T18:51:39.324Z,101969.38
2023-01-29T18:54:07.557Z,101978.84
2023-01-29T18:56:36.081Z,101976.25
2023-01-29T18:59:12.109Z,101972.84
2023-01-29T19:01:41.433Z,101975.44
2023-01-29T19:04:09.664Z,101958.19
2023-01-29T19:06:38.070Z,101966.78
2023-01-29T19:09:06.391Z,101966.81
2023-01-29T19:11:34.591Z,101965.06
2023-01-29T19:14:02.819Z,101957.28
2023-01-29T19:16:32.422Z,101959.00
2023-01-29T19:19:00.654Z,101951.25
2023-01-29T19:21:30.461Z,101964.16
2023-01-29T19:23:58.707Z,101952.09
2023-01-29T19:26:27.011Z,101946.94
2023-01-29T19:28:55.325Z,101951.19
2023-01-29T19:31:23.552Z,101945.16
2023-01-29T19:33:53.218Z,101939.13
2023-01-29T19:36:21.559Z,101946.88
2023-01-29T19:38:50.269Z,101945.16
2023-01-29T19:41:18.609Z,101954.66
2023-01-29T19:43:48.378Z,101958.94
2023-01-29T19:46:17.490Z,101969.28
2023-01-29T19:48:47.178Z,101971.03
2023-01-29T19:51:16.859Z,101970.19
2023-01-29T19:53:45.019Z,101969.31
2023-01-29T19:56:15.629Z,101968.47
2023-01-29T19:58:44.824Z,101975.34
2023-01-29T20:01:16.667Z,101981.38
2023-01-29T20:03:46.663Z,101985.72
2023-01-29T20:06:18.054Z,101991.75
2023-01-29T20:08:46.844Z,101984.00
2023-01-29T20:11:15.728Z,101989.19
2023-01-29T20:13:44.676Z,101998.63
2023-01-29T20:16:13.037Z,101995.22
2023-01-29T20:18:41.397Z,102006.41
2023-01-29T20:21:11.480Z,102004.66
2023-01-29T20:23:41.585Z,102003.78
2023-01-29T20:26:12.581Z,101993.50
2023-01-29T20:28:41.304Z,101993.47
2023-01-29T20:31:10.954Z,101990.91
2023-01-29T20:33:39.826Z,101990.03
2023-01-29T20:36:11.328Z,101975.41
2023-01-29T20:38:39.614Z,101984.88
2023-01-29T20:41:11.985Z,101992.63
2023-01-29T20:43:40.757Z,101989.16
2023-01-29T20:46:09.240Z,101985.72
2023-01-29T20:48:38.765Z,101990.91
2023-01-29T20:51:09.461Z,101983.16
2023-01-29T20:53:38.288Z,101988.31
2023-01-29T20:56:09.039Z,101997.78
2023-01-29T20:58:41.349Z,101999.50
2023-01-29T21:01:10.517Z,101996.94
2023-01-29T21:03:39.799Z,102002.94
2023-01-29T21:06:08.605Z,101992.59
2023-01-29T21:08:37.244Z,102000.38
2023-01-29T21:11:06.974Z,102002.09
2023-01-29T21:13:36.926Z,102002.97
2023-01-29T21:16:05.889Z,102004.66
2023-01-29T21:18:34.111Z,102014.13
2023-01-29T21:21:02.406Z,102003.81
2023-01-29T21:23:30.835Z,101999.50
2023-01-29T21:26:03.322Z,102006.38
2023-01-29T21:28:31.528Z,102004.66
2023-01-29T21:31:10.163Z,102009.81
2023-01-29T21:33:39.521Z,102006.38
2023-01-29T21:36:10.172Z,102013.28
2023-01-29T21:38:38.787Z,102006.38
2023-01-29T21:41:08.996Z,102002.94
2023-01-29T21:43:36.767Z,102004.66
2023-01-29T21:46:11.858Z,102011.53
2023-01-29T21:48:41.183Z,102007.25
2023-01-29T21:51:09.442Z,102007.22
2023-01-29T21:53:37.849Z,101998.63
2023-01-29T21:56:07.309Z,101996.03
2023-01-29T21:58:35.756Z,102004.66
2023-01-29T22:01:36.676Z,102002.91
2023-01-29T22:03:53.660Z,102012.38
2023-01-29T22:06:22.838Z,102012.34
2023-01-29T22:08:51.172Z,102013.22
2023-01-29T22:11:19.723Z,102008.06
2023-01-29T22:13:48.125Z,102002.88
2023-01-29T22:16:16.365Z,102003.78
2023-01-29T22:18:44.625Z,102002.03
2023-01-29T22:21:14.273Z,102004.66
2023-01-29T22:23:42.850Z,102002.06
2023-01-29T22:26:12.286Z,102003.78
2023-01-29T22:28:40.614Z,101998.63
2023-01-29T22:31:08.835Z,101985.72
2023-01-29T22:33:37.202Z,101975.38
2023-01-29T22:36:05.951Z,101976.28
2023-01-29T22:38:35.606Z,101974.56
2023-01-29T22:41:04.776Z,101977.97
2023-01-29T22:43:32.974Z,101971.13
2023-01-29T22:46:01.214Z,101977.13
2023-01-29T22:48:30.745Z,101971.09
2023-01-29T22:51:10.146Z,101970.19
2023-01-29T22:53:41.484Z,101979.66
2023-01-29T22:56:10.391Z,101987.38
2023-01-29T22:58:39.043Z,101969.31
2023-01-29T23:01:07.336Z,101961.53
2023-01-29T23:03:35.761Z,101956.38
2023-01-29T23:06:04.845Z,101955.47
2023-01-29T23:08:34.050Z,101956.31
2023-01-29T23:11:14.546Z,101952.00
2023-01-29T23:13:43.900Z,101954.53
2023-01-29T23:16:12.237Z,101957.91
2023-01-29T23:18:40.520Z,101957.91
2023-01-29T23:21:09.703Z,101953.53
2023-01-29T23:23:38.779Z,101964.66
2023-01-29T23:26:28.775Z,101974.91
2023-01-29T23:28:57.063Z,101974.81
2023-01-29T23:31:25.789Z,101974.78
2023-01-29T23:33:54.078Z,101973.84
2023-01-29T23:36:22.532Z,101978.09
2023-01-29T23:38:50.754Z,101973.81
2023-01-29T23:41:20.322Z,101975.50
2023-01-29T23:43:48.638Z,101973.81
2023-01-29T23:46:16.859Z,101960.09
2023-01-29T23:48:45.169Z,101966.13
2023-01-29T23:51:13.387Z,101965.31
2023-01-29T23:53:41.922Z,101956.78
2023-01-29T23:56:12.372Z,101963.63
2023-01-29T23:58:41.948Z,101961.88
